createdAt,value
2023-04-27T00:01:13.565Z,1.77
2023-04-27T00:03:42.600Z,0.80
2023-04-27T00:06:11.390Z,1.60
2023-04-27T00:08:41.196Z,2.47
2023-04-27T00:11:09.583Z,1.47
2023-04-27T00:13:38.021Z,1.83
2023-04-27T00:16:06.646Z,1.57
2023-04-27T00:18:35.076Z,1.33
2023-04-27T00:21:03.398Z,0.80
2023-04-27T00:23:31.862Z,0.83
2023-04-27T00:26:01.572Z,1.23
2023-04-27T00:28:29.945Z,1.10
2023-04-27T00:30:58.377Z,1.83
2023-04-27T00:33:26.988Z,0.80
2023-04-27T00:35:55.467Z,0.93
2023-04-27T00:38:23.824Z,1.03
2023-04-27T00:40:52.166Z,0.80
2023-04-27T00:43:21.915Z,2.30
2023-04-27T00:45:50.882Z,0.80
2023-04-27T00:48:19.349Z,0.90
2023-04-27T00:50:47.684Z,1.10
2023-04-27T00:53:16.272Z,1.00
2023-04-27T00:55:44.662Z,0.93
2023-04-27T00:58:13.211Z,0.90
2023-04-27T01:00:43.223Z,1.23
2023-04-27T01:03:11.833Z,0.90
2023-04-27T01:05:41.344Z,1.10
2023-04-27T01:08:10.047Z,0.90
2023-04-27T01:10:38.776Z,2.03
2023-04-27T01:13:07.484Z,1.00
2023-04-27T01:15:35.982Z,0.87
2023-04-27T01:18:05.865Z,0.90
2023-04-27T01:20:34.314Z,2.00
2023-04-27T01:23:03.477Z,0.93
2023-04-27T01:25:33.234Z,1.00
2023-04-27T01:28:01.834Z,2.70
2023-04-27T01:30:30.226Z,1.20
2023-04-27T01:32:58.604Z,1.03
2023-04-27T01:35:28.362Z,1.37
2023-04-27T01:37:57.458Z,1.17
2023-04-27T01:40:25.815Z,1.10
2023-04-27T01:42:56.147Z,1.10
2023-04-27T01:45:24.605Z,1.43
2023-04-27T01:47:53.185Z,0.80
2023-04-27T01:50:21.703Z,1.00
2023-04-27T01:52:50.148Z,2.50
2023-04-27T01:55:18.665Z,2.03
2023-04-27T01:57:47.028Z,1.00
2023-04-27T02:00:17.815Z,1.20
2023-04-27T02:02:46.533Z,0.90
2023-04-27T02:05:15.013Z,1.00
2023-04-27T02:07:43.442Z,1.00
2023-04-27T02:10:12.502Z,1.00
2023-04-27T02:12:41.208Z,1.10
2023-04-27T02:15:10.440Z,0.90
2023-04-27T02:17:41.172Z,1.97
2023-04-27T02:20:10.055Z,2.30
2023-04-27T02:22:38.559Z,1.40
2023-04-27T02:25:07.333Z,0.90
2023-04-27T02:27:35.769Z,0.90
2023-04-27T02:30:06.341Z,1.00
2023-04-27T02:32:37.644Z,0.90
2023-04-27T02:35:07.938Z,2.07
2023-04-27T02:37:36.769Z,1.30
2023-04-27T02:40:07.128Z,1.73
2023-04-27T02:42:35.675Z,1.40
2023-04-27T02:45:04.310Z,1.53
2023-04-27T02:47:32.735Z,1.50
2023-04-27T02:50:01.209Z,1.00
2023-04-27T02:52:31.017Z,0.90
2023-04-27T02:54:59.422Z,1.73
2023-04-27T02:57:27.794Z,2.23
2023-04-27T02:59:56.225Z,1.10
2023-04-27T03:02:24.782Z,1.20
2023-04-27T03:04:56.182Z,1.67
2023-04-27T03:07:24.613Z,0.80
2023-04-27T03:09:54.306Z,1.33
2023-04-27T03:12:22.674Z,1.00
2023-04-27T03:14:51.095Z,0.90
2023-04-27T03:17:19.605Z,1.27
2023-04-27T03:19:49.305Z,0.83
2023-04-27T03:22:17.672Z,0.90
2023-04-27T03:24:46.523Z,1.93
2023-04-27T03:27:16.377Z,0.90
2023-04-27T03:29:44.923Z,0.90
2023-04-27T03:32:13.550Z,0.90
2023-04-27T03:34:41.945Z,1.40
2023-04-27T03:37:10.305Z,1.33
2023-04-27T03:39:38.731Z,1.23
2023-04-27T03:42:07.446Z,0.90
2023-04-27T03:44:37.261Z,1.00
2023-04-27T03:47:09.067Z,3.90
2023-04-27T03:49:37.649Z,0.90
2023-04-27T03:52:06.347Z,1.40
2023-04-27T03:54:34.718Z,2.17
2023-04-27T03:57:04.414Z,0.90
2023-04-27T03:59:32.850Z,0.90
2023-04-27T04:02:04.062Z,0.90
2023-04-27T04:04:32.880Z,0.80
2023-04-27T04:07:01.403Z,1.40
2023-04-27T04:09:29.703Z,1.00
2023-04-27T04:11:58.107Z,0.90
2023-04-27T04:14:26.497Z,0.90
2023-04-27T04:16:54.944Z,1.00
2023-04-27T04:19:24.981Z,0.90
2023-04-27T04:21:54.802Z,4.10
2023-04-27T04:24:23.168Z,3.23
2023-04-27T04:26:51.499Z,2.07
2023-04-27T04:29:19.886Z,5.70
2023-04-27T04:31:48.370Z,1.37
2023-04-27T04:34:16.921Z,3.97
2023-04-27T04:36:46.620Z,3.23
2023-04-27T04:39:15.608Z,7.20
2023-04-27T04:41:44.220Z,6.87
2023-04-27T04:44:12.552Z,5.87
2023-04-27T04:46:41.041Z,5.03
2023-04-27T04:49:09.476Z,5.63
2023-04-27T04:51:38.160Z,6.00
2023-04-27T04:54:07.996Z,4.73
2023-04-27T04:56:36.509Z,1.73
2023-04-27T04:59:05.099Z,6.50
2023-04-27T05:01:33.764Z,5.17
2023-04-27T05:04:02.393Z,4.50
2023-04-27T05:06:31.850Z,5.23
2023-04-27T05:09:00.338Z,5.90
2023-04-27T05:11:30.144Z,8.37
2023-04-27T05:13:58.483Z,8.07
2023-04-27T05:16:26.902Z,9.80
2023-04-27T05:18:55.355Z,7.83
2023-04-27T05:21:23.838Z,7.37
2023-04-27T05:23:52.182Z,7.83
2023-04-27T05:26:21.138Z,6.70
2023-04-27T05:28:50.871Z,8.30
2023-04-27T05:31:19.240Z,6.93
2023-04-27T05:33:47.643Z,6.50
2023-04-27T05:36:16.053Z,7.03
2023-04-27T05:38:44.419Z,7.93
2023-04-27T05:41:12.818Z,6.53
2023-04-27T05:43:41.194Z,6.40
2023-04-27T05:46:11.260Z,6.57
2023-04-27T05:48:39.753Z,6.93
2023-04-27T05:51:08.109Z,2.47
2023-04-27T05:53:36.860Z,5.43
2023-04-27T05:56:06.873Z,5.10
2023-04-27T05:58:35.511Z,6.40
2023-04-27T06:01:04.342Z,4.00
2023-04-27T06:03:34.298Z,4.80
2023-04-27T06:06:03.361Z,5.07
2023-04-27T06:08:31.856Z,5.73
2023-04-27T06:11:00.228Z,6.97
2023-04-27T06:13:28.585Z,5.50
2023-04-27T06:15:56.975Z,4.47
2023-04-27T06:18:25.373Z,6.23
2023-04-27T06:20:55.170Z,5.97
2023-04-27T06:23:23.940Z,4.53
2023-04-27T06:25:52.339Z,4.70
2023-04-27T06:28:20.750Z,5.70
2023-04-27T06:30:49.107Z,6.67
2023-04-27T06:33:17.627Z,5.67
2023-04-27T06:35:47.549Z,5.83
2023-04-27T06:38:17.567Z,5.93
2023-04-27T06:40:46.056Z,5.50
2023-04-27T06:43:14.412Z,6.50
2023-04-27T06:45:43.111Z,4.83
2023-04-27T06:48:11.663Z,5.50
2023-04-27T06:50:40.087Z,5.33
2023-04-27T06:53:08.488Z,4.60
2023-04-27T06:55:38.314Z,4.93
2023-04-27T06:58:06.949Z,5.67
2023-04-27T07:00:35.433Z,5.00
2023-04-27T07:03:03.982Z,5.50
2023-04-27T07:05:32.664Z,4.70
2023-04-27T07:08:05.207Z,4.90
2023-04-27T07:10:35.773Z,2.87
2023-04-27T07:13:07.313Z,4.30
2023-04-27T07:15:37.239Z,4.53
2023-04-27T07:18:05.848Z,3.77
2023-04-27T07:20:34.330Z,2.80
2023-04-27T07:23:02.945Z,2.10
2023-04-27T07:25:31.440Z,2.13
2023-04-27T07:27:59.818Z,3.93
2023-04-27T07:30:30.830Z,3.10
2023-04-27T07:33:00.825Z,5.17
2023-04-27T07:35:29.188Z,3.30
2023-04-27T07:37:57.881Z,3.37
2023-04-27T07:40:26.636Z,4.17
2023-04-27T07:42:55.181Z,3.10
2023-04-27T07:45:24.028Z,5.30
2023-04-27T07:47:53.881Z,4.27
2023-04-27T07:50:25.337Z,3.27
2023-04-27T07:52:54.511Z,1.63
2023-04-27T07:55:23.537Z,3.30
2023-04-27T07:57:51.912Z,3.00
2023-04-27T08:00:20.805Z,6.03
2023-04-27T08:02:49.460Z,5.30
2023-04-27T08:05:19.828Z,1.80
2023-04-27T08:07:49.040Z,4.57
2023-04-27T08:10:17.617Z,1.50
2023-04-27T08:12:46.005Z,1.70
2023-04-27T08:15:14.586Z,4.00
2023-04-27T08:17:43.760Z,2.63
2023-04-27T08:20:13.340Z,3.37
2023-04-27T08:22:43.448Z,2.50
2023-04-27T08:25:11.962Z,3.73
2023-04-27T08:27:41.076Z,3.70
2023-04-27T08:30:10.038Z,3.50
2023-04-27T08:32:38.514Z,3.50
2023-04-27T08:35:07.362Z,2.27
2023-04-27T08:37:35.706Z,3.73
2023-04-27T08:40:08.259Z,1.93
2023-04-27T08:42:36.921Z,2.10
2023-04-27T08:45:08.625Z,0.90
2023-04-27T08:47:43.384Z,0.80
2023-04-27T08:50:12.945Z,2.60
2023-04-27T08:52:41.392Z,1.60
2023-04-27T08:55:12.088Z,1.97
2023-04-27T08:57:42.203Z,2.13
2023-04-27T09:00:13.402Z,3.83
2023-04-27T09:02:48.337Z,2.97
2023-04-27T09:05:18.457Z,1.60
2023-04-27T09:07:57.739Z,3.00
2023-04-27T09:10:29.355Z,2.03
2023-04-27T09:12:58.922Z,3.03
2023-04-27T09:15:27.261Z,1.60
2023-04-27T09:17:56.865Z,3.97
2023-04-27T09:20:27.269Z,1.40
2023-04-27T09:22:58.327Z,3.00
2023-04-27T09:25:29.306Z,1.07
2023-04-27T09:27:58.338Z,2.40
2023-04-27T09:30:27.141Z,1.93
2023-04-27T09:32:56.088Z,2.13
2023-04-27T09:35:25.769Z,4.03
2023-04-27T09:37:54.760Z,3.17
2023-04-27T09:40:26.566Z,4.13
2023-04-27T09:42:56.896Z,3.50
2023-04-27T09:45:25.661Z,4.73
2023-04-27T09:47:54.401Z,3.40
2023-04-27T09:50:23.051Z,2.70
2023-04-27T09:52:51.514Z,1.83
2023-04-27T09:55:21.832Z,2.27
2023-04-27T09:57:55.709Z,1.90
2023-04-27T10:00:33.938Z,3.53
2023-04-27T10:03:09.779Z,3.03
2023-04-27T10:05:56.097Z,1.60
2023-04-27T10:08:24.730Z,1.53
2023-04-27T10:10:55.025Z,4.73
2023-04-27T10:13:24.042Z,2.77
2023-04-27T10:15:54.197Z,5.20
2023-04-27T10:18:28.842Z,3.47
2023-04-27T10:20:57.342Z,5.57
2023-04-27T10:23:26.368Z,5.03
2023-04-27T10:25:55.768Z,1.03
2023-04-27T10:28:24.124Z,2.53
2023-04-27T10:30:53.924Z,2.47
2023-04-27T10:33:25.254Z,3.03
2023-04-27T10:35:57.235Z,2.77
2023-04-27T10:38:29.525Z,2.23
2023-04-27T10:40:58.585Z,2.37
2023-04-27T10:43:27.848Z,3.73
2023-04-27T10:46:08.703Z,3.30
2023-04-27T10:48:37.137Z,1.63
2023-04-27T10:51:05.707Z,3.50
2023-04-27T10:53:36.532Z,3.00
2023-04-27T10:56:06.973Z,3.10
2023-04-27T10:58:48.363Z,2.87
2023-04-27T11:01:27.009Z,3.50
2023-04-27T11:03:58.957Z,2.00
2023-04-27T11:06:28.108Z,5.13
2023-04-27T11:08:56.704Z,4.80
2023-04-27T11:11:26.339Z,3.67
2023-04-27T11:13:55.831Z,4.23
2023-04-27T11:16:25.061Z,2.40
2023-04-27T11:18:54.801Z,3.00
2023-04-27T11:21:23.561Z,2.37
2023-04-27T11:23:52.022Z,2.20
2023-04-27T11:26:22.645Z,2.47
2023-04-27T11:28:59.931Z,0.90
2023-04-27T11:31:29.102Z,3.13
2023-04-27T11:33:58.951Z,5.33
2023-04-27T11:36:27.890Z,4.27
2023-04-27T11:39:00.087Z,4.07
2023-04-27T11:41:35.146Z,3.03
2023-04-27T11:44:07.476Z,3.60
2023-04-27T11:46:38.258Z,0.83
2023-04-27T11:49:09.412Z,0.60
2023-04-27T11:51:38.447Z,3.77
2023-04-27T11:54:09.527Z,2.43
2023-04-27T11:56:38.559Z,3.47
2023-04-27T11:59:07.315Z,5.73
2023-04-27T12:01:38.339Z,1.30
2023-04-27T12:04:08.628Z,1.20
2023-04-27T12:06:38.319Z,1.57
2023-04-27T12:09:06.827Z,3.70
2023-04-27T12:11:35.171Z,1.80
2023-04-27T12:14:03.963Z,2.97
2023-04-27T12:16:32.369Z,3.33
2023-04-27T12:19:00.726Z,0.60
2023-04-27T12:21:30.803Z,2.23
2023-04-27T12:23:59.216Z,4.20
2023-04-27T12:26:27.679Z,2.70
2023-04-27T12:28:56.188Z,3.27
2023-04-27T12:31:27.689Z,1.67
2023-04-27T12:33:56.388Z,1.10
2023-04-27T12:36:24.789Z,1.00
2023-04-27T12:38:54.565Z,1.43
2023-04-27T12:41:23.340Z,3.17
2023-04-27T12:43:52.012Z,2.27
2023-04-27T12:46:20.474Z,2.67
2023-04-27T12:48:49.017Z,2.57
2023-04-27T12:51:17.483Z,2.73
2023-04-27T12:53:45.906Z,2.00
2023-04-27T12:56:15.743Z,2.40
2023-04-27T12:58:44.372Z,2.80
2023-04-27T13:01:15.008Z,2.37
2023-04-27T13:03:43.854Z,2.30
2023-04-27T13:06:12.539Z,1.63
2023-04-27T13:08:42.165Z,3.63
2023-04-27T13:11:10.809Z,2.10
2023-04-27T13:13:41.200Z,2.07
2023-04-27T13:16:10.378Z,1.33
2023-04-27T13:18:38.842Z,2.87
2023-04-27T13:21:07.266Z,2.00
2023-04-27T13:23:35.849Z,2.70
2023-04-27T13:26:04.284Z,2.70
2023-04-27T13:28:32.628Z,4.00
2023-04-27T13:31:02.418Z,1.80
2023-04-27T13:33:30.874Z,2.07
2023-04-27T13:36:02.152Z,2.97
2023-04-27T13:38:30.675Z,3.90
2023-04-27T13:40:59.218Z,2.90
2023-04-27T13:43:27.584Z,7.30
2023-04-27T13:45:56.511Z,1.43
2023-04-27T13:48:27.749Z,2.43
2023-04-27T13:50:56.328Z,1.77
2023-04-27T13:53:26.418Z,1.90
2023-04-27T13:55:55.173Z,3.13
2023-04-27T13:58:25.797Z,2.77
2023-04-27T14:00:54.696Z,1.80
2023-04-27T14:03:23.714Z,2.33
2023-04-27T14:05:53.621Z,3.33
2023-04-27T14:08:22.532Z,2.47
2023-04-27T14:10:51.290Z,2.90
2023-04-27T14:13:20.459Z,2.00
2023-04-27T14:15:48.920Z,3.07
2023-04-27T14:18:17.468Z,0.90
2023-04-27T14:20:46.513Z,2.37
2023-04-27T14:23:16.375Z,2.47
2023-04-27T14:25:44.769Z,1.57
2023-04-27T14:28:14.724Z,1.67
2023-04-27T14:30:43.073Z,2.40
2023-04-27T14:33:11.568Z,2.20
2023-04-27T14:35:40.075Z,1.97
2023-04-27T14:38:08.676Z,2.67
2023-04-27T14:40:38.499Z,2.23
2023-04-27T14:43:07.056Z,3.00
2023-04-27T14:45:47.727Z,3.00
2023-04-27T14:48:19.069Z,2.43
2023-04-27T14:50:47.672Z,3.20
2023-04-27T14:53:16.106Z,2.37
2023-04-27T14:55:46.780Z,2.30
2023-04-27T14:58:15.497Z,2.33
2023-04-27T15:00:43.861Z,2.57
2023-04-27T15:03:12.472Z,2.27
2023-04-27T15:05:41.085Z,2.97
2023-04-27T15:08:09.450Z,1.90
2023-04-27T15:10:37.817Z,2.43
2023-04-27T15:13:07.553Z,3.07
2023-04-27T15:15:36.013Z,1.63
2023-04-27T15:18:04.529Z,1.70
2023-04-27T15:20:32.976Z,2.80
2023-04-27T15:23:01.361Z,2.30
2023-04-27T15:25:29.807Z,1.07
2023-04-27T15:27:58.419Z,2.73
2023-04-27T15:30:28.216Z,2.30
2023-04-27T15:32:56.964Z,2.70
2023-04-27T15:35:25.417Z,2.53
2023-04-27T15:37:53.892Z,2.23
2023-04-27T15:40:22.304Z,1.73
2023-04-27T15:42:50.665Z,1.87
2023-04-27T15:45:19.221Z,2.40
2023-04-27T15:47:49.186Z,1.50
2023-04-27T15:50:18.169Z,1.83
2023-04-27T15:52:46.735Z,1.93
2023-04-27T15:55:15.052Z,3.90
2023-04-27T15:57:43.396Z,2.00
2023-04-27T16:00:12.240Z,2.70
2023-04-27T16:02:41.154Z,3.17
2023-04-27T16:05:11.433Z,3.10
2023-04-27T16:07:40.298Z,3.30
2023-04-27T16:10:09.528Z,2.00
2023-04-27T16:12:37.945Z,2.73
2023-04-27T16:15:10.093Z,2.93
2023-04-27T16:17:39.601Z,2.70
2023-04-27T16:20:09.469Z,2.03
2023-04-27T16:22:39.450Z,2.27
2023-04-27T16:25:10.647Z,3.07
2023-04-27T16:27:39.420Z,1.87
2023-04-27T16:30:08.714Z,2.63
2023-04-27T16:32:37.184Z,2.03
2023-04-27T16:35:05.787Z,3.23
2023-04-27T16:37:34.131Z,3.60
2023-04-27T16:40:06.925Z,1.63
2023-04-27T16:42:35.506Z,3.53
2023-04-27T16:45:04.229Z,2.80
2023-04-27T16:47:32.780Z,3.00
2023-04-27T16:50:01.427Z,1.63
2023-04-27T16:52:29.942Z,2.27
2023-04-27T16:54:58.405Z,1.47
2023-04-27T16:57:28.237Z,2.23
2023-04-27T16:59:56.712Z,2.60
2023-04-27T17:02:26.030Z,2.37
2023-04-27T17:04:54.662Z,3.13
2023-04-27T17:07:23.110Z,3.73
2023-04-27T17:09:51.481Z,1.97
2023-04-27T17:12:19.864Z,2.40
2023-04-27T17:14:49.682Z,3.73
2023-04-27T17:17:18.402Z,2.83
2023-04-27T17:19:46.861Z,2.50
2023-04-27T17:22:15.265Z,1.83
2023-04-27T17:24:43.645Z,2.30
2023-04-27T17:27:12.374Z,2.37
2023-04-27T17:29:41.107Z,2.03
2023-04-27T17:32:10.886Z,1.60
2023-04-27T17:34:41.054Z,2.50
2023-04-27T17:37:11.287Z,2.73
2023-04-27T17:39:40.075Z,2.83
2023-04-27T17:42:12.379Z,3.57
2023-04-27T17:44:42.400Z,1.87
2023-04-27T17:47:12.192Z,4.50
2023-04-27T17:49:40.578Z,1.87
2023-04-27T17:52:09.880Z,2.53
2023-04-27T17:54:38.316Z,2.87
2023-04-27T17:57:06.715Z,2.67
2023-04-27T17:59:35.178Z,3.90
2023-04-27T18:02:03.904Z,2.23
2023-04-27T18:04:33.932Z,4.53
2023-04-27T18:07:02.417Z,4.17
2023-04-27T18:09:32.978Z,2.80
2023-04-27T18:12:02.271Z,3.40
2023-04-27T18:14:30.783Z,3.03
2023-04-27T18:16:59.293Z,3.43
2023-04-27T18:19:28.487Z,2.60
2023-04-27T18:21:58.251Z,4.37
2023-04-27T18:24:26.733Z,3.03
2023-04-27T18:26:55.165Z,2.27
2023-04-27T18:29:23.469Z,2.53
2023-04-27T18:31:53.227Z,2.23
2023-04-27T18:34:21.823Z,2.43
2023-04-27T18:36:51.927Z,2.67
2023-04-27T18:39:22.132Z,4.83
2023-04-27T18:41:50.687Z,2.77
2023-04-27T18:44:19.033Z,2.97
2023-04-27T18:46:47.493Z,3.07
2023-04-27T18:49:16.252Z,3.53
2023-04-27T18:51:44.928Z,1.53
2023-04-27T18:54:13.271Z,2.97
2023-04-27T18:56:43.044Z,4.33
2023-04-27T18:59:11.656Z,3.33
2023-04-27T19:01:40.669Z,3.40
2023-04-27T19:04:09.374Z,3.93
2023-04-27T19:06:37.818Z,2.93
2023-04-27T19:09:06.416Z,3.37
2023-04-27T19:11:34.801Z,3.27
2023-04-27T19:14:04.626Z,3.03
2023-04-27T19:16:33.052Z,3.73
2023-04-27T19:19:02.064Z,4.67
2023-04-27T19:21:31.253Z,2.37
2023-04-27T19:23:59.700Z,3.67
2023-04-27T19:26:29.636Z,3.50
2023-04-27T19:28:58.138Z,2.47
2023-04-27T19:31:28.098Z,1.73
2023-04-27T19:36:32.066Z,4.10
2023-04-27T19:39:00.569Z,3.13
2023-04-27T19:41:29.117Z,2.03
2023-04-27T19:43:57.506Z,2.03
2023-04-27T19:46:26.758Z,1.20
2023-04-27T19:48:56.687Z,2.83
2023-04-27T19:51:25.213Z,2.80
2023-04-27T19:53:53.605Z,3.00
2023-04-27T19:56:21.946Z,2.97
2023-04-27T19:58:50.304Z,2.77
2023-04-27T20:01:18.883Z,1.77
2023-04-27T20:03:47.439Z,2.90
2023-04-27T20:06:17.387Z,2.40
2023-04-27T20:08:45.778Z,3.00
2023-04-27T20:11:14.210Z,2.13
2023-04-27T20:13:42.821Z,3.07
2023-04-27T20:16:11.376Z,2.63
2023-04-27T20:18:39.893Z,2.47
2023-04-27T20:21:08.567Z,2.90
2023-04-27T20:23:38.476Z,2.83
2023-04-27T20:26:07.011Z,3.37
2023-04-27T20:28:35.442Z,3.70
2023-04-27T20:31:03.864Z,2.90
2023-04-27T20:33:32.239Z,3.10
2023-04-27T20:36:06.727Z,2.90
2023-04-27T20:38:46.312Z,4.17
2023-04-27T20:41:14.789Z,3.67
2023-04-27T20:43:44.782Z,3.57
2023-04-27T20:46:13.646Z,3.40
2023-04-27T20:48:42.186Z,3.57
2023-04-27T20:51:10.761Z,3.03
2023-04-27T20:53:40.044Z,4.23
2023-04-27T20:56:11.982Z,3.70
2023-04-27T20:58:40.405Z,3.83
2023-04-27T21:01:10.147Z,3.40
2023-04-27T21:03:38.718Z,4.10
2023-04-27T21:06:07.424Z,3.10
2023-04-27T21:08:35.884Z,3.17
2023-04-27T21:11:04.333Z,3.03
2023-04-27T21:13:34.114Z,3.93
2023-04-27T21:16:03.975Z,2.73
2023-04-27T21:18:32.409Z,3.73
2023-04-27T21:21:01.617Z,3.73
2023-04-27T21:23:29.993Z,4.37
2023-04-27T21:25:58.342Z,3.73
2023-04-27T21:28:26.785Z,3.97
2023-04-27T21:30:56.779Z,3.30
2023-04-27T21:33:25.186Z,4.40
2023-04-27T21:35:53.886Z,3.77
2023-04-27T21:38:22.237Z,3.73
2023-04-27T21:40:50.641Z,3.93
2023-04-27T21:43:19.012Z,4.37
2023-04-27T21:45:47.919Z,4.23
2023-04-27T21:48:17.711Z,5.00
2023-04-27T21:50:46.150Z,4.70
2023-04-27T21:53:15.858Z,4.47
2023-04-27T21:55:44.544Z,4.17
2023-04-27T21:58:13.022Z,3.90
2023-04-27T22:00:41.597Z,4.37
2023-04-27T22:03:10.171Z,4.47
2023-04-27T22:05:40.107Z,3.63
2023-04-27T22:08:09.044Z,4.43
2023-04-27T22:10:37.452Z,4.63
2023-04-27T22:13:17.553Z,5.60
2023-04-27T22:15:46.931Z,4.50
2023-04-27T22:18:15.666Z,3.87
2023-04-27T22:20:46.056Z,4.53
2023-04-27T22:23:14.535Z,4.47
2023-04-27T22:25:43.405Z,3.63
2023-04-27T22:28:11.886Z,3.77
2023-04-27T22:30:40.888Z,3.70
2023-04-27T22:33:09.524Z,3.10
2023-04-27T22:35:38.811Z,4.37
2023-04-27T22:38:08.726Z,5.03
2023-04-27T22:40:37.458Z,4.67
2023-04-27T22:43:06.219Z,5.63
2023-04-27T22:45:36.113Z,5.83
2023-04-27T22:48:06.759Z,4.93
2023-04-27T22:50:35.261Z,4.93
2023-04-27T22:53:03.679Z,5.20
2023-04-27T22:55:33.422Z,5.83
2023-04-27T22:58:01.822Z,2.50
2023-04-27T23:00:30.833Z,4.30
2023-04-27T23:02:59.338Z,4.83
2023-04-27T23:05:29.070Z,5.63
2023-04-27T23:07:57.552Z,6.30
2023-04-27T23:10:26.820Z,2.97
2023-04-27T23:12:57.116Z,4.70
2023-04-27T23:15:25.460Z,4.43
2023-04-27T23:17:53.815Z,3.33
2023-04-27T23:22:53.613Z,5.43
2023-04-27T23:25:22.293Z,5.17
2023-04-27T23:27:52.262Z,6.13
2023-04-27T23:30:22.736Z,4.37
2023-04-27T23:32:51.113Z,6.27
2023-04-27T23:35:19.542Z,6.13
2023-04-27T23:37:47.925Z,4.93
2023-04-27T23:40:16.325Z,6.20
2023-04-27T23:42:44.704Z,6.60
2023-04-27T23:45:13.617Z,6.63
2023-04-27T23:47:43.635Z,7.87
2023-04-27T23:50:12.369Z,6.73
2023-04-27T23:52:40.777Z,5.07
2023-04-27T23:55:10.238Z,5.07
2023-04-27T23:57:38.622Z,4.80
